Time;durP1;ratioP1;P1;durP2;ratioP2;P2;SDS_P1;SDS_P2;PMS_P1;PMS_P2;Temp;Humidity;BMP_temperature;BMP_pressure;BME280_temperature;BME280_humidity;BME280_pressure;Samples;Min_cycle;Max_cycle;Signal;HPM_P1;HPM_P2
2023/03/26 00:01:32;;;;;;;16.53;2.80;;;8.20;99.90;;;;;;5057897;28;20195;-82
2023/03/26 00:03:58;;;;;;;10.13;2.43;;;8.20;99.90;;;;;;5058985;28;20179;-82
2023/03/26 00:06:33;;;;;;;11.63;2.70;;;8.20;99.90;;;;;;5058658;28;20176;-82
2023/03/26 00:08:59;;;;;;;15.53;3.03;;;8.20;99.90;;;;;;5058755;28;20182;-82
2023/03/26 00:11:27;;;;;;;17.07;3.33;;;8.30;99.90;;;;;;5058854;28;20647;-81
2023/03/26 00:13:56;;;;;;;17.43;3.20;;;8.30;99.90;;;;;;5059001;28;20207;-81
2023/03/26 00:16:23;;;;;;;21.63;3.27;;;8.20;99.90;;;;;;5060655;28;20250;-82
2023/03/26 00:18:50;;;;;;;15.57;2.57;;;8.20;99.90;;;;;;5060506;28;20258;-82
2023/03/26 00:21:19;;;;;;;17.87;3.37;;;8.30;99.90;;;;;;5059914;28;20225;-81
2023/03/26 00:23:46;;;;;;;17.30;4.07;;;8.20;99.90;;;;;;5064933;28;20176;-81
2023/03/26 00:26:12;;;;;;;16.27;4.27;;;8.20;99.90;;;;;;5065709;28;20171;-82
2023/03/26 00:28:40;;;;;;;31.07;3.90;;;8.20;99.90;;;;;;5078717;28;20176;-81
2023/03/26 00:31:09;;;;;;;18.60;3.57;;;8.20;99.90;;;;;;5076194;28;20203;-82
2023/03/26 00:33:39;;;;;;;20.43;3.70;;;8.20;99.90;;;;;;5065483;28;20194;-82
2023/03/26 00:36:13;;;;;;;20.70;3.43;;;8.20;99.90;;;;;;5068300;28;20172;-81
2023/03/26 00:38:39;;;;;;;21.57;4.63;;;8.20;99.90;;;;;;5066489;28;20144;-81
2023/03/26 00:41:16;;;;;;;22.17;3.43;;;8.20;99.90;;;;;;5064682;28;20168;-82
2023/03/26 00:43:42;;;;;;;22.13;3.57;;;8.20;99.90;;;;;;5066335;28;20522;-82
2023/03/26 00:46:07;;;;;;;28.10;4.40;;;8.20;99.90;;;;;;5065916;28;20233;-82
2023/03/26 00:48:37;;;;;;;19.07;3.43;;;8.20;99.90;;;;;;5063373;28;20647;-82
2023/03/26 00:51:03;;;;;;;23.57;3.57;;;8.20;99.90;;;;;;5059383;28;20167;-83
2023/03/26 00:53:29;;;;;;;24.73;4.17;;;8.20;99.90;;;;;;5064809;28;20271;-82
2023/03/26 00:55:59;;;;;;;22.83;4.37;;;8.20;99.90;;;;;;5066342;28;20179;-82
2023/03/26 00:58:25;;;;;;;15.50;3.37;;;8.20;99.90;;;;;;5066625;28;20168;-81
2023/03/26 01:00:58;;;;;;;16.83;2.97;;;8.20;99.90;;;;;;5066805;28;20175;-82
2023/03/26 01:03:27;;;;;;;21.67;3.53;;;8.20;99.90;;;;;;5064506;28;20286;-81
2023/03/26 01:06:03;;;;;;;19.37;2.97;;;8.20;99.90;;;;;;5068094;28;20650;-82
2023/03/26 01:08:39;;;;;;;16.87;3.23;;;8.20;99.90;;;;;;5069363;28;20616;-82
2023/03/26 01:11:12;;;;;;;18.00;3.53;;;8.20;99.90;;;;;;5060841;28;20206;-81
2023/03/26 01:13:41;;;;;;;19.60;3.80;;;8.10;99.90;;;;;;5059357;28;20159;-81
2023/03/26 01:16:19;;;;;;;17.20;3.33;;;8.10;99.90;;;;;;5058790;28;20172;-81
2023/03/26 01:18:45;;;;;;;23.00;3.67;;;8.10;99.90;;;;;;5063553;28;20499;-81
2023/03/26 01:21:12;;;;;;;26.30;4.67;;;8.10;99.90;;;;;;5074313;28;20191;-80
2023/03/26 01:23:45;;;;;;;24.17;4.73;;;8.10;99.90;;;;;;5072932;28;20496;-82
2023/03/26 01:26:45;;;;;;;19.83;3.13;;;8.10;99.90;;;;;;5059293;28;20187;-82
2023/03/26 01:29:30;;;;;;;15.17;2.87;;;8.10;99.90;;;;;;5054911;28;20186;-82
2023/03/26 01:32:08;;;;;;;23.53;3.67;;;8.00;99.90;;;;;;5056661;28;20569;-82
2023/03/26 01:34:56;;;;;;;20.20;3.93;;;8.00;99.90;;;;;;5056865;28;20239;-81
2023/03/26 01:37:46;;;;;;;12.40;3.00;;;8.00;99.90;;;;;;5056366;28;20234;-81
2023/03/26 01:40:25;;;;;;;16.83;2.80;;;8.10;99.90;;;;;;5056538;28;20171;-82
2023/03/26 01:42:57;;;;;;;14.30;3.00;;;8.00;99.90;;;;;;5056450;28;20689;-82
2023/03/26 01:45:29;;;;;;;17.77;3.13;;;8.00;99.90;;;;;;5055060;28;20177;-82
2023/03/26 01:47:55;;;;;;;11.63;3.20;;;8.00;99.90;;;;;;5056695;28;20166;-82
2023/03/26 01:50:21;;;;;;;22.23;3.63;;;7.90;99.90;;;;;;5055250;28;20230;-82
2023/03/26 01:52:46;;;;;;;13.23;2.77;;;7.90;99.90;;;;;;5055927;28;20219;-82
2023/03/26 01:55:13;;;;;;;12.63;3.10;;;7.90;99.90;;;;;;5054836;28;20655;-82
2023/03/26 01:58:04;;;;;;;18.33;3.93;;;7.90;99.90;;;;;;5054889;28;20176;-82
2023/03/26 02:00:47;;;;;;;10.13;2.50;;;7.90;99.90;;;;;;5056677;28;20156;-81
2023/03/26 02:03:26;;;;;;;12.13;2.83;;;7.80;99.90;;;;;;5054847;28;20219;-82
2023/03/26 02:06:30;;;;;;;18.53;3.20;;;7.80;99.90;;;;;;5055307;28;20167;-81
2023/03/26 02:09:04;;;;;;;14.47;3.50;;;7.80;99.90;;;;;;5056322;28;20213;-82
2023/03/26 02:11:30;;;;;;;9.73;2.80;;;7.70;99.90;;;;;;5054445;28;20219;-82
2023/03/26 02:13:57;;;;;;;12.30;2.63;;;7.70;99.90;;;;;;5056387;28;20168;-82
2023/03/26 02:16:22;;;;;;;17.97;3.67;;;7.70;99.90;;;;;;5056664;28;20658;-82
2023/03/26 02:18:54;;;;;;;16.97;2.90;;;7.70;99.90;;;;;;5057037;28;20185;-82
2023/03/26 02:21:22;;;;;;;10.10;2.40;;;7.70;99.90;;;;;;5057122;28;20191;-82
2023/03/26 02:24:01;;;;;;;11.60;2.60;;;7.80;99.90;;;;;;5054802;28;20657;-82
2023/03/26 02:26:27;;;;;;;9.33;2.23;;;7.70;99.90;;;;;;5056678;28;20159;-82
2023/03/26 02:28:53;;;;;;;13.90;3.03;;;7.70;99.90;;;;;;5057111;28;20175;-80
2023/03/26 02:31:19;;;;;;;12.57;2.77;;;7.70;99.90;;;;;;5057151;28;20774;-82
2023/03/26 02:33:46;;;;;;;15.13;3.03;;;7.70;99.90;;;;;;5055525;28;20652;-81
2023/03/26 02:36:12;;;;;;;8.63;2.37;;;7.70;99.90;;;;;;5055550;28;20601;-81
2023/03/26 02:38:40;;;;;;;12.03;2.80;;;7.70;99.90;;;;;;5055761;28;20659;-82
2023/03/26 02:41:06;;;;;;;11.53;3.07;;;7.70;99.90;;;;;;5057862;28;20245;-82
2023/03/26 02:43:32;;;;;;;7.67;2.40;;;7.70;99.90;;;;;;5056007;28;20179;-81
2023/03/26 02:45:57;;;;;;;17.77;2.97;;;7.70;99.90;;;;;;5056616;28;20655;-81
2023/03/26 02:48:23;;;;;;;11.07;3.20;;;7.70;99.90;;;;;;5058049;28;20670;-82
2023/03/26 02:50:52;;;;;;;12.27;2.67;;;7.70;99.90;;;;;;5056873;28;20187;-82
2023/03/26 02:53:22;;;;;;;14.13;2.23;;;7.70;99.90;;;;;;5058120;28;20277;-81
2023/03/26 02:55:48;;;;;;;13.73;2.77;;;7.70;99.90;;;;;;5058272;28;20217;-82
2023/03/26 02:58:16;;;;;;;11.43;2.90;;;7.70;99.90;;;;;;5056378;28;20663;-81
2023/03/26 03:00:45;;;;;;;14.10;3.27;;;7.70;99.90;;;;;;5058355;28;20666;-82
2023/03/26 03:03:11;;;;;;;15.80;2.87;;;7.70;99.90;;;;;;5060995;28;20200;-82
2023/03/26 03:05:37;;;;;;;16.77;3.30;;;7.70;99.90;;;;;;5070141;28;20168;-82
2023/03/26 03:08:04;;;;;;;15.87;2.90;;;7.60;99.90;;;;;;5068445;28;20266;-82
2023/03/26 03:10:33;;;;;;;10.07;2.60;;;7.50;99.90;;;;;;5062085;28;20206;-82
2023/03/26 03:12:59;;;;;;;15.47;3.17;;;7.50;99.90;;;;;;5055125;28;20226;-82
2023/03/26 03:15:24;;;;;;;16.27;2.67;;;7.50;99.90;;;;;;5054475;28;20600;-82
2023/03/26 03:17:50;;;;;;;18.60;2.83;;;7.40;99.90;;;;;;5053622;28;20171;-82
2023/03/26 03:20:16;;;;;;;14.20;2.53;;;7.30;99.90;;;;;;5053105;28;20325;-82
2023/03/26 03:22:42;;;;;;;15.53;2.70;;;7.30;99.90;;;;;;5052935;28;20618;-82
2023/03/26 03:25:13;;;;;;;12.53;2.73;;;7.30;99.90;;;;;;5054764;28;20171;-82
2023/03/26 03:27:39;;;;;;;10.93;2.77;;;7.30;99.90;;;;;;5054475;28;20160;-82
2023/03/26 03:30:05;;;;;;;8.17;2.40;;;7.20;99.90;;;;;;5054163;28;20176;-82
2023/03/26 03:32:31;;;;;;;14.43;3.00;;;7.20;99.90;;;;;;5054419;28;20196;-82
2023/03/26 03:34:56;;;;;;;10.93;2.73;;;7.10;99.90;;;;;;5054555;28;20175;-82
2023/03/26 03:37:23;;;;;;;9.97;2.50;;;7.10;99.90;;;;;;5056457;28;20174;-82
2023/03/26 03:39:49;;;;;;;9.93;2.27;;;7.10;99.90;;;;;;5056700;28;20281;-81
2023/03/26 03:42:14;;;;;;;10.67;2.10;;;7.00;99.90;;;;;;5058198;28;20223;-82
2023/03/26 03:44:40;;;;;;;9.53;2.80;;;7.00;99.90;;;;;;5058355;28;20178;-81
2023/03/26 03:47:05;;;;;;;8.67;2.43;;;7.00;99.90;;;;;;5056897;28;20618;-81
2023/03/26 03:49:31;;;;;;;12.57;2.47;;;7.00;99.90;;;;;;5058410;28;20227;-82
2023/03/26 03:51:57;;;;;;;8.80;2.07;;;7.00;99.90;;;;;;5058337;28;20207;-81
2023/03/26 03:54:23;;;;;;;10.27;2.50;;;6.90;99.90;;;;;;5058326;28;20213;-82
2023/03/26 03:56:48;;;;;;;14.60;2.07;;;6.90;99.90;;;;;;5056943;28;20618;-82
2023/03/26 03:59:14;;;;;;;14.73;2.57;;;6.90;99.90;;;;;;5058118;28;20644;-81
2023/03/26 04:01:42;;;;;;;7.97;1.80;;;6.90;99.90;;;;;;5058427;28;20203;-81
2023/03/26 04:04:08;;;;;;;12.83;2.03;;;6.90;99.90;;;;;;5058543;28;20608;-81
2023/03/26 04:06:33;;;;;;;7.67;1.97;;;6.90;99.90;;;;;;5058214;28;20705;-82
2023/03/26 04:08:59;;;;;;;6.33;2.07;;;6.90;99.90;;;;;;5056737;28;20191;-82
2023/03/26 04:11:25;;;;;;;11.17;2.00;;;6.90;99.90;;;;;;5056546;28;20219;-81
2023/03/26 04:13:50;;;;;;;6.57;1.53;;;6.90;99.90;;;;;;5056533;28;20283;-80
2023/03/26 04:16:17;;;;;;;7.20;2.23;;;6.90;99.90;;;;;;5058283;28;20254;-82
2023/03/26 04:18:44;;;;;;;8.60;2.07;;;6.90;99.90;;;;;;5057059;28;20321;-82
2023/03/26 04:21:11;;;;;;;7.30;2.00;;;7.00;99.90;;;;;;5056865;28;20184;-81
2023/03/26 04:23:37;;;;;;;13.10;2.53;;;6.90;99.90;;;;;;5056499;28;20183;-82
2023/03/26 04:26:05;;;;;;;12.27;2.57;;;7.00;99.90;;;;;;5056539;28;20198;-82
2023/03/26 04:28:55;;;;;;;12.00;2.87;;;7.00;99.90;;;;;;5058523;28;20172;-82
2023/03/26 04:31:27;;;;;;;13.03;2.53;;;7.00;99.90;;;;;;5056990;28;20196;-82
2023/03/26 04:33:58;;;;;;;11.43;2.07;;;7.00;99.90;;;;;;5056597;28;20647;-82
2023/03/26 04:36:30;;;;;;;17.50;2.20;;;7.00;99.90;;;;;;5058308;28;20164;-82
2023/03/26 04:39:01;;;;;;;13.37;2.73;;;7.00;99.90;;;;;;5056404;28;20671;-82
2023/03/26 04:41:28;;;;;;;14.70;2.60;;;7.10;99.90;;;;;;5056890;28;20249;-82
2023/03/26 04:43:54;;;;;;;10.17;2.83;;;7.10;99.90;;;;;;5057204;28;20218;-82
2023/03/26 04:46:22;;;;;;;13.73;2.87;;;7.10;99.90;;;;;;5058378;28;20241;-82
2023/03/26 04:48:50;;;;;;;14.77;2.33;;;7.10;99.90;;;;;;5057395;28;20686;-82
2023/03/26 04:51:17;;;;;;;10.07;2.53;;;7.10;99.90;;;;;;5058670;28;20260;-82
2023/03/26 04:53:50;;;;;;;17.47;2.77;;;7.10;99.90;;;;;;5057744;28;20200;-83
2023/03/26 04:56:50;;;;;;;9.07;1.87;;;7.10;99.90;;;;;;5058216;28;20268;-82
2023/03/26 04:59:29;;;;;;;8.80;2.63;;;7.10;99.90;;;;;;5059176;28;20187;-82
2023/03/26 05:01:59;;;;;;;12.83;2.37;;;7.20;99.90;;;;;;5059113;28;20199;-82
2023/03/26 05:04:25;;;;;;;9.23;2.13;;;7.20;99.90;;;;;;5058072;28;20206;-82
2023/03/26 05:06:55;;;;;;;7.30;2.10;;;7.20;99.90;;;;;;5058650;28;20180;-82
2023/03/26 05:09:21;;;;;;;6.23;1.90;;;7.20;99.90;;;;;;5057470;28;20488;-82
2023/03/26 05:11:47;;;;;;;8.83;2.07;;;7.20;99.90;;;;;;5056905;28;20222;-83
2023/03/26 05:14:13;;;;;;;10.83;2.27;;;7.20;99.90;;;;;;5057954;28;20164;-82
2023/03/26 05:16:40;;;;;;;8.87;2.63;;;7.20;99.90;;;;;;5057801;28;20267;-82
2023/03/26 05:19:05;;;;;;;10.50;2.10;;;7.20;99.90;;;;;;5055847;28;20179;-82
2023/03/26 05:21:31;;;;;;;9.93;2.20;;;7.20;99.90;;;;;;5057108;28;20520;-82
2023/03/26 05:23:57;;;;;;;7.33;2.40;;;7.20;99.90;;;;;;5056410;28;20187;-81
2023/03/26 05:26:22;;;;;;;10.70;2.20;;;7.20;99.90;;;;;;5055743;28;20176;-82
2023/03/26 05:28:48;;;;;;;13.67;2.57;;;7.20;99.90;;;;;;5055840;28;20179;-83
2023/03/26 05:31:15;;;;;;;14.60;2.37;;;7.20;99.90;;;;;;5057006;28;20172;-81
2023/03/26 05:33:41;;;;;;;9.00;2.20;;;7.20;99.90;;;;;;5058383;28;20195;-82
2023/03/26 05:36:12;;;;;;;6.30;2.60;;;7.20;99.90;;;;;;5058128;28;20178;-82
2023/03/26 05:38:37;;;;;;;9.57;2.30;;;7.30;99.90;;;;;;5058104;28;20160;-82
2023/03/26 05:41:06;;;;;;;15.03;2.47;;;7.30;99.90;;;;;;5058019;28;20195;-82
2023/03/26 05:43:32;;;;;;;10.40;2.47;;;7.30;99.90;;;;;;5056645;28;20190;-80
2023/03/26 05:45:58;;;;;;;12.03;2.23;;;7.30;99.90;;;;;;5058457;28;20685;-82
2023/03/26 05:48:24;;;;;;;13.37;2.77;;;7.30;99.90;;;;;;5056832;28;20180;-82
2023/03/26 05:50:52;;;;;;;18.07;2.90;;;7.20;99.90;;;;;;5058892;28;20172;-82
2023/03/26 05:53:19;;;;;;;9.43;2.30;;;7.30;99.90;;;;;;5056491;28;20222;-81
2023/03/26 05:55:45;;;;;;;11.87;2.63;;;7.30;99.90;;;;;;5058083;28;20198;-82
2023/03/26 05:58:12;;;;;;;15.10;3.40;;;7.30;99.90;;;;;;5057860;28;20171;-83
2023/03/26 06:00:38;;;;;;;10.33;2.50;;;7.30;99.90;;;;;;5058617;28;20225;-82
2023/03/26 06:03:04;;;;;;;18.37;3.43;;;7.30;99.90;;;;;;5056963;28;20199;-82
2023/03/26 06:05:36;;;;;;;10.63;3.20;;;7.30;99.90;;;;;;5058757;28;20236;-82
2023/03/26 06:08:02;;;;;;;8.37;2.67;;;7.40;99.90;;;;;;5057036;28;20233;-82
2023/03/26 06:10:29;;;;;;;12.00;2.80;;;7.40;99.90;;;;;;5058883;28;20274;-82
2023/03/26 06:12:54;;;;;;;14.17;2.80;;;7.40;99.90;;;;;;5060074;28;20218;-81
2023/03/26 06:15:20;;;;;;;12.13;2.93;;;7.40;99.90;;;;;;5057725;28;20199;-82
2023/03/26 06:17:46;;;;;;;7.43;2.60;;;7.40;99.90;;;;;;5059691;28;20281;-82
2023/03/26 06:20:12;;;;;;;19.37;3.17;;;7.50;99.90;;;;;;5059739;28;20167;-82
2023/03/26 06:22:37;;;;;;;13.57;2.37;;;7.50;99.90;;;;;;5058194;28;20679;-82
2023/03/26 06:25:04;;;;;;;18.50;3.43;;;7.50;99.90;;;;;;5060246;28;20179;-82
2023/03/26 06:27:29;;;;;;;13.97;2.73;;;7.50;99.90;;;;;;5060460;28;20238;-83
2023/03/26 06:29:55;;;;;;;16.40;2.43;;;7.50;99.90;;;;;;5058592;28;20229;-82
2023/03/26 06:32:21;;;;;;;17.47;3.20;;;7.50;99.90;;;;;;5061481;28;20333;-82
2023/03/26 06:34:46;;;;;;;11.30;2.93;;;7.50;99.90;;;;;;5072037;28;20175;-82
2023/03/26 06:37:12;;;;;;;12.87;2.40;;;7.50;99.90;;;;;;5074218;28;20209;-82
2023/03/26 06:39:37;;;;;;;11.20;2.20;;;7.60;99.90;;;;;;5068135;28;20590;-82
2023/03/26 06:42:03;;;;;;;12.23;2.93;;;7.60;99.90;;;;;;5057607;28;20269;-82
2023/03/26 06:44:29;;;;;;;17.47;2.07;;;7.60;99.90;;;;;;5057732;28;20229;-82
2023/03/26 06:46:54;;;;;;;8.90;2.47;;;7.60;99.90;;;;;;5058988;28;20175;-82
2023/03/26 06:49:20;;;;;;;7.50;2.17;;;7.60;99.90;;;;;;5057747;28;20647;-81
2023/03/26 06:51:46;;;;;;;14.20;2.30;;;7.70;99.90;;;;;;5058170;28;20706;-82
2023/03/26 06:54:12;;;;;;;9.70;2.30;;;7.70;99.90;;;;;;5059439;28;20175;-82
2023/03/26 06:56:38;;;;;;;18.17;2.90;;;7.70;99.90;;;;;;5058246;28;20574;-82
2023/03/26 06:59:03;;;;;;;9.20;2.23;;;7.70;99.90;;;;;;5060736;28;20179;-82
2023/03/26 07:01:29;;;;;;;13.43;2.67;;;7.70;99.90;;;;;;5059160;28;20195;-82
2023/03/26 07:03:55;;;;;;;11.43;3.30;;;7.70;99.90;;;;;;5060544;28;20239;-82
2023/03/26 07:06:21;;;;;;;15.67;2.97;;;7.70;99.90;;;;;;5068050;28;20237;-83
2023/03/26 07:08:46;;;;;;;7.73;2.83;;;7.70;99.90;;;;;;5072017;28;20160;-82
2023/03/26 07:11:12;;;;;;;14.03;2.70;;;7.70;99.90;;;;;;5072584;28;20251;-83
2023/03/26 07:13:38;;;;;;;10.80;2.23;;;7.70;99.90;;;;;;5065804;28;20195;-83
2023/03/26 07:16:05;;;;;;;14.00;2.70;;;7.80;99.90;;;;;;5062182;28;20180;-82
2023/03/26 07:18:31;;;;;;;13.30;3.07;;;7.80;99.90;;;;;;5063511;28;20164;-83
2023/03/26 07:20:56;;;;;;;12.60;2.90;;;7.80;99.90;;;;;;5063960;28;20175;-82
2023/03/26 07:23:22;;;;;;;8.67;2.47;;;7.80;99.90;;;;;;5063793;28;20200;-82
2023/03/26 07:25:48;;;;;;;10.33;3.17;;;7.90;99.90;;;;;;5072573;28;20182;-83
2023/03/26 07:29:01;;;;;;;15.17;2.63;;;7.90;99.90;;;;;;5079146;28;20180;-82
2023/03/26 07:31:46;;;;;;;11.77;3.03;;;7.90;99.90;;;;;;5050205;28;20214;-83
2023/03/26 07:34:45;;;;;;;12.70;2.30;;;7.90;99.90;;;;;;5022393;28;20180;-82
2023/03/26 07:37:21;;;;;;;7.40;2.47;;;8.00;99.90;;;;;;5054936;28;20247;-83
2023/03/26 07:39:49;;;;;;;16.40;2.60;;;8.00;99.90;;;;;;5058958;28;20657;-82
2023/03/26 07:42:18;;;;;;;14.73;3.23;;;8.00;99.90;;;;;;5059703;28;20195;-82
2023/03/26 07:44:58;;;;;;;11.03;2.77;;;8.00;99.90;;;;;;5060248;28;20251;-83
2023/03/26 07:47:33;;;;;;;9.70;2.93;;;8.00;99.90;;;;;;5058923;28;20233;-83
2023/03/26 07:49:59;;;;;;;12.23;2.77;;;8.10;99.90;;;;;;5060654;28;20174;-83
2023/03/26 07:52:25;;;;;;;13.73;3.00;;;8.10;99.90;;;;;;5058516;28;20207;-83
2023/03/26 07:54:51;;;;;;;12.00;2.53;;;8.10;99.90;;;;;;5060038;28;20176;-83
2023/03/26 07:57:26;;;;;;;15.17;2.77;;;8.10;99.90;;;;;;5059484;28;20170;-83
2023/03/26 08:00:21;;;;;;;11.17;2.97;;;8.20;99.90;;;;;;5058587;28;20171;-82
2023/03/26 08:03:08;;;;;;;11.43;2.67;;;8.20;99.90;;;;;;5056257;28;20199;-83
2023/03/26 08:05:42;;;;;;;13.73;3.10;;;8.20;99.90;;;;;;5058647;28;20182;-82
2023/03/26 08:08:29;;;;;;;13.73;3.13;;;8.30;99.90;;;;;;5060455;28;20160;-83
2023/03/26 08:11:14;;;;;;;11.10;3.10;;;8.30;99.90;;;;;;5058357;28;20191;-83
2023/03/26 08:14:05;;;;;;;10.13;2.90;;;8.30;99.90;;;;;;5059187;28;20282;-82
2023/03/26 08:16:50;;;;;;;13.43;3.10;;;8.30;99.90;;;;;;5058260;28;20160;-83
2023/03/26 08:19:34;;;;;;;11.13;2.70;;;8.40;99.90;;;;;;5057585;28;20252;-83
2023/03/26 08:22:25;;;;;;;13.20;2.53;;;8.40;99.90;;;;;;5058845;28;20195;-83
2023/03/26 08:25:16;;;;;;;9.83;2.47;;;8.40;99.90;;;;;;5057726;28;20168;-83
2023/03/26 08:27:57;;;;;;;12.87;3.13;;;8.40;99.90;;;;;;5059629;28;20152;-83
2023/03/26 08:30:24;;;;;;;10.57;2.40;;;8.40;99.90;;;;;;5059948;28;20168;-82
2023/03/26 08:32:55;;;;;;;10.37;2.30;;;8.40;99.90;;;;;;5057893;28;20213;-83
2023/03/26 08:35:21;;;;;;;9.33;2.10;;;8.40;99.90;;;;;;5058229;28;20267;-82
2023/03/26 08:37:46;;;;;;;15.43;2.80;;;8.40;99.90;;;;;;5060031;28;20199;-83
2023/03/26 08:40:19;;;;;;;12.77;2.90;;;8.50;99.90;;;;;;5058585;28;20176;-83
2023/03/26 08:43:38;;;;;;;13.93;3.47;;;8.50;99.90;;;;;;5059546;28;20226;-83
2023/03/26 08:46:33;;;;;;;11.67;3.30;;;8.50;99.90;;;;;;5021064;28;20668;-83
2023/03/26 08:49:05;;;;;;;7.60;2.50;;;8.40;99.90;;;;;;5059691;28;20195;-83
2023/03/26 08:51:55;;;;;;;8.43;2.33;;;8.40;99.90;;;;;;5058189;28;20223;-83
2023/03/26 08:54:59;;;;;;;6.57;2.10;;;8.50;99.90;;;;;;5059443;28;20167;-82
2023/03/26 08:57:57;;;;;;;12.90;2.70;;;8.50;99.90;;;;;;5059822;28;20192;-83
2023/03/26 09:01:05;;;;;;;12.23;2.30;;;8.50;99.90;;;;;;5061345;28;20175;-83
2023/03/26 09:03:42;;;;;;;8.67;2.50;;;8.50;99.90;;;;;;5059760;28;20187;-83
2023/03/26 09:06:23;;;;;;;13.40;2.23;;;8.60;99.90;;;;;;5061502;28;20176;-83
2023/03/26 09:09:30;;;;;;;6.53;2.43;;;8.60;99.90;;;;;;5061049;28;20266;-82
2023/03/26 09:12:30;;;;;;;10.20;2.80;;;8.60;99.90;;;;;;5059991;28;20222;-83
2023/03/26 09:15:15;;;;;;;4.60;2.10;;;8.60;99.90;;;;;;5058810;28;20172;-83
2023/03/26 09:18:04;;;;;;;11.00;2.63;;;8.60;99.90;;;;;;5062085;28;20167;-83
2023/03/26 09:20:47;;;;;;;9.07;2.10;;;8.60;99.90;;;;;;5061957;28;20156;-83
2023/03/26 09:23:41;;;;;;;9.30;2.20;;;8.70;99.90;;;;;;5059629;28;20215;-83
2023/03/26 09:26:34;;;;;;;8.67;2.17;;;8.70;99.90;;;;;;5060786;28;20189;-82
2023/03/26 09:29:42;;;;;;;6.83;2.20;;;8.70;99.90;;;;;;5060762;28;20174;-83
2023/03/26 09:32:35;;;;;;;7.03;1.97;;;8.80;99.90;;;;;;5057472;28;20277;-83
2023/03/26 09:35:24;;;;;;;11.17;2.40;;;8.70;99.90;;;;;;5059543;28;20168;-83
2023/03/26 09:37:57;;;;;;;6.83;2.57;;;8.80;99.90;;;;;;5059048;28;20168;-83
2023/03/26 09:40:55;;;;;;;10.80;1.87;;;8.80;99.90;;;;;;5058395;28;20176;-82
2023/03/26 09:43:51;;;;;;;5.87;1.70;;;8.80;99.90;;;;;;5059631;28;20263;-83
2023/03/26 09:46:59;;;;;;;8.47;1.67;;;8.80;99.90;;;;;;5060406;28;20199;-83
2023/03/26 09:49:50;;;;;;;5.87;1.67;;;8.80;99.90;;;;;;5060197;28;20211;-82
2023/03/26 09:52:44;;;;;;;9.47;1.63;;;8.70;99.90;;;;;;5057752;28;20215;-84
2023/03/26 09:55:35;;;;;;;8.40;2.50;;;8.70;99.90;;;;;;5058933;28;20171;-83
2023/03/26 09:58:13;;;;;;;6.90;1.63;;;8.70;99.90;;;;;;5059058;28;20517;-83
2023/03/26 10:01:04;;;;;;;7.00;2.00;;;8.70;99.90;;;;;;5059240;28;20176;-83
2023/03/26 10:03:48;;;;;;;6.27;3.40;;;8.70;99.90;;;;;;5060391;28;20164;-83
2023/03/26 10:06:41;;;;;;;6.37;2.43;;;8.70;99.90;;;;;;5057682;28;20176;-83
2023/03/26 10:09:20;;;;;;;9.07;1.80;;;8.70;99.90;;;;;;5057442;28;20193;-83
2023/03/26 10:11:57;;;;;;;4.30;1.40;;;8.70;99.90;;;;;;5057914;28;20215;-83
2023/03/26 10:14:53;;;;;;;7.27;1.63;;;8.70;99.90;;;;;;5060185;28;20171;-83
2023/03/26 10:17:54;;;;;;;6.27;1.50;;;8.70;99.90;;;;;;5058230;28;20187;-83
2023/03/26 10:20:52;;;;;;;3.23;1.13;;;8.70;99.90;;;;;;5060017;28;20156;-83
2023/03/26 10:23:55;;;;;;;3.27;1.43;;;8.70;99.90;;;;;;5055128;28;20242;-83
2023/03/26 10:26:35;;;;;;;4.27;1.50;;;8.60;99.90;;;;;;5059598;28;20168;-83
2023/03/26 10:29:33;;;;;;;3.23;1.00;;;8.60;99.90;;;;;;5058497;28;20179;-83
2023/03/26 10:32:45;;;;;;;4.03;1.23;;;8.60;99.90;;;;;;5058968;28;20199;-84
2023/03/26 10:35:35;;;;;;;3.70;0.70;;;8.50;99.90;;;;;;5050013;28;20183;-83
2023/03/26 10:38:29;;;;;;;2.03;0.70;;;8.40;99.90;;;;;;5060923;28;20163;-83
2023/03/26 10:41:24;;;;;;;4.17;1.20;;;8.40;99.90;;;;;;5060764;28;20156;-83
2023/03/26 10:43:58;;;;;;;1.40;0.70;;;8.40;99.90;;;;;;5061823;28;20178;-83
2023/03/26 10:46:41;;;;;;;2.20;0.90;;;8.40;99.90;;;;;;5066523;28;20166;-82
2023/03/26 10:49:38;;;;;;;1.40;0.60;;;8.40;99.90;;;;;;5063968;28;20171;-83
2023/03/26 10:52:08;;;;;;;1.53;0.70;;;8.40;99.90;;;;;;5064910;28;20200;-83
2023/03/26 10:55:08;;;;;;;3.43;0.83;;;8.40;99.90;;;;;;5072293;28;20156;-83
2023/03/26 10:57:55;;;;;;;3.03;0.87;;;8.40;99.90;;;;;;5079816;28;20172;-83
2023/03/26 11:00:26;;;;;;;2.50;0.63;;;8.40;99.90;;;;;;5074603;28;20182;-84
2023/03/26 11:03:03;;;;;;;2.03;0.73;;;8.40;99.90;;;;;;5064174;28;20690;-83
2023/03/26 11:05:42;;;;;;;1.77;0.80;;;8.50;99.90;;;;;;5066058;28;20186;-83
2023/03/26 11:08:33;;;;;;;1.73;0.70;;;8.50;99.90;;;;;;5066403;28;20623;-82
2023/03/26 11:11:04;;;;;;;1.10;0.67;;;8.60;99.90;;;;;;5073544;28;20194;-83
2023/03/26 11:13:56;;;;;;;5.47;0.90;;;8.60;99.90;;;;;;5074617;28;20196;-84
2023/03/26 11:16:39;;;;;;;0.73;0.57;;;8.70;99.90;;;;;;5072410;28;20239;-83
2023/03/26 11:19:33;;;;;;;2.67;0.80;;;8.80;99.90;;;;;;5060886;28;20159;-83
2023/03/26 11:22:30;;;;;;;1.80;0.70;;;8.90;99.90;;;;;;5061688;28;20195;-83
2023/03/26 11:25:20;;;;;;;1.43;0.70;;;8.90;99.90;;;;;;5026990;28;20191;-82
2023/03/26 11:28:19;;;;;;;1.80;0.80;;;8.90;99.90;;;;;;5061595;28;20168;-83
2023/03/26 11:31:18;;;;;;;3.17;0.80;;;9.00;99.90;;;;;;5062628;28;20214;-84
2023/03/26 11:33:49;;;;;;;0.93;0.80;;;9.00;99.90;;;;;;5057803;28;20234;-84
2023/03/26 11:36:28;;;;;;;2.23;0.70;;;9.10;99.90;;;;;;5062457;28;20156;-83
2023/03/26 11:38:57;;;;;;;1.83;0.50;;;8.90;99.90;;;;;;5059890;28;20176;-83
2023/03/26 11:41:30;;;;;;;1.23;0.50;;;9.00;99.90;;;;;;5060686;28;20191;-83
2023/03/26 11:44:04;;;;;;;1.67;0.60;;;9.00;99.90;;;;;;5061981;28;20190;-83
2023/03/26 11:46:32;;;;;;;2.50;0.77;;;9.10;99.90;;;;;;5061310;28;20537;-83
2023/03/26 11:48:59;;;;;;;0.67;0.60;;;9.00;99.90;;;;;;5060071;28;20183;-82
2023/03/26 11:51:30;;;;;;;2.23;0.50;;;9.00;99.90;;;;;;5061811;28;20198;-83
2023/03/26 11:53:56;;;;;;;1.70;0.70;;;9.00;99.90;;;;;;5061568;28;20187;-83
2023/03/26 11:56:31;;;;;;;2.93;0.80;;;9.00;99.90;;;;;;5058896;28;20172;-83
2023/03/26 11:59:04;;;;;;;1.07;0.60;;;9.10;99.90;;;;;;5060246;28;20178;-83
2023/03/26 12:01:54;;;;;;;0.93;0.50;;;9.10;99.90;;;;;;5060292;28;20679;-83
2023/03/26 12:04:41;;;;;;;1.90;0.70;;;9.20;99.90;;;;;;5060550;28;20176;-83
2023/03/26 12:07:19;;;;;;;1.57;0.63;;;9.20;99.90;;;;;;5062065;28;20222;-81
2023/03/26 12:10:19;;;;;;;1.80;0.60;;;9.30;99.90;;;;;;5062102;28;20155;-83
2023/03/26 12:12:46;;;;;;;1.10;0.70;;;9.30;99.90;;;;;;5061273;28;20208;-83
2023/03/26 12:15:17;;;;;;;2.00;0.90;;;9.30;99.90;;;;;;5061215;28;20333;-83
2023/03/26 12:17:45;;;;;;;2.13;0.90;;;9.40;99.90;;;;;;5060327;28;20168;-83
2023/03/26 12:20:25;;;;;;;2.30;0.80;;;9.40;99.90;;;;;;5059706;28;20172;-83
2023/03/26 12:22:58;;;;;;;0.90;0.50;;;9.50;99.90;;;;;;5061752;28;20187;-82
2023/03/26 12:25:38;;;;;;;2.57;0.57;;;9.50;99.90;;;;;;5060656;28;20179;-83
2023/03/26 12:28:12;;;;;;;0.80;0.30;;;9.50;99.90;;;;;;5060467;28;20175;-82
2023/03/26 12:30:40;;;;;;;1.53;0.53;;;9.50;99.90;;;;;;5061890;28;20170;-83
2023/03/26 12:33:24;;;;;;;1.20;0.47;;;9.50;99.90;;;;;;5062324;28;20199;-83
2023/03/26 12:35:50;;;;;;;0.90;0.53;;;9.60;99.90;;;;;;5061777;28;20185;-82
2023/03/26 12:38:36;;;;;;;0.73;0.50;;;9.60;99.90;;;;;;5077508;28;20180;-83
2023/03/26 12:41:10;;;;;;;0.60;0.47;;;9.70;99.90;;;;;;5078391;28;20152;-83
2023/03/26 12:43:46;;;;;;;0.60;0.60;;;9.60;99.90;;;;;;5064986;28;20261;-83
2023/03/26 12:46:30;;;;;;;0.80;0.40;;;9.70;99.90;;;;;;5057601;28;20179;-83
2023/03/26 12:49:02;;;;;;;2.57;0.47;;;9.70;99.90;;;;;;5058890;28;20270;-83
2023/03/26 12:51:39;;;;;;;1.87;0.47;;;9.80;99.90;;;;;;5057425;28;20285;-83
2023/03/26 12:54:32;;;;;;;1.07;0.53;;;9.70;99.90;;;;;;5059373;28;20160;-83
2023/03/26 12:57:12;;;;;;;3.33;0.57;;;9.70;99.90;;;;;;5057141;28;20164;-83
2023/03/26 13:00:08;;;;;;;1.70;0.60;;;9.80;99.90;;;;;;5057956;28;20696;-84
2023/03/26 13:02:33;;;;;;;0.70;0.40;;;9.90;99.90;;;;;;5057519;28;20202;-83
2023/03/26 13:05:03;;;;;;;0.87;0.40;;;9.90;99.90;;;;;;5057707;28;20179;-82
2023/03/26 13:07:38;;;;;;;0.53;0.40;;;9.90;99.90;;;;;;5056958;28;20182;-83
2023/03/26 13:10:33;;;;;;;2.00;0.37;;;10.00;99.90;;;;;;5059663;28;20168;-83
2023/03/26 13:13:09;;;;;;;0.30;0.30;;;10.10;99.90;;;;;;5060060;28;20203;-83
2023/03/26 13:15:42;;;;;;;1.60;0.60;;;10.00;99.90;;;;;;5059064;28;20199;-83
2023/03/26 13:18:33;;;;;;;1.37;0.60;;;10.10;99.90;;;;;;5060423;28;20623;-83
2023/03/26 13:21:38;;;;;;;1.17;0.50;;;10.20;99.90;;;;;;5060590;28;20227;-83
2023/03/26 13:24:18;;;;;;;2.10;0.60;;;10.20;99.90;;;;;;5050086;28;20198;-82
2023/03/26 13:27:03;;;;;;;0.97;0.50;;;10.30;99.90;;;;;;5060021;28;20178;-83
2023/03/26 13:29:39;;;;;;;0.77;0.53;;;10.40;99.90;;;;;;5069045;28;20162;-83
2023/03/26 13:32:29;;;;;;;0.63;0.40;;;10.50;99.90;;;;;;5072899;28;20206;-83